KISQ

Schoolcraft County Airport

Manistique, Michigan, USA
METAR KISQ 131115Z AUTO 10005KT 4SM HZ OVC012 01/M01 A3000 RMK AO2 T00101015
Observed Flight Rules
Dec-13 @ 11:15 UTC (18 minutes ago) Marginal Visual Flight Rules
Wind Visibility Clouds Conditions
100° at 5 knots 4 miles
  • Overcast at 1,200' AGL
  • Haze
Temperatures Readings
Current 1°C / 34°F
Dewpoint -2°C / 28°F
Humidity 81%
Altimeter 30" Hg
Pressure 1016 hPa
Elevation 209
METAR KISQ 131115Z AUTO 10005KT 4SM HZ OVC012 01/M01 A3000 RMK AO2 T00101015
Observed Flight Rules
Dec-13 @ 11:15 UTC
(18 minutes ago)
MVFR
Wind Visibility
100° at 5 knots 4 miles
Clouds
  • Overcast at 1,200' AGL
Conditions
  • Haze
Temperature Dewpoint
1°C / 34°F -2°C / 28°F
Humidity Altimeter Pressure
81% 30" Hg 1016 hPa